sensor_id;sensor_type;location;lat;lon;timestamp;P1;durP1;ratioP1;P2;durP2;ratioP2
1402;SDS011;696;48.546;9.896;2022-08-19T00:02:03;22.45;;;11.25;;
1402;SDS011;696;48.546;9.896;2022-08-19T00:04:32;19.50;;;10.90;;
1402;SDS011;696;48.546;9.896;2022-08-19T00:07:02;20.17;;;10.95;;
1402;SDS011;696;48.546;9.896;2022-08-19T00:09:29;19.80;;;10.27;;
1402;SDS011;696;48.546;9.896;2022-08-19T00:11:55;19.30;;;11.38;;
1402;SDS011;696;48.546;9.896;2022-08-19T00:14:21;22.38;;;11.65;;
1402;SDS011;696;48.546;9.896;2022-08-19T00:16:47;15.27;;;9.48;;
1402;SDS011;696;48.546;9.896;2022-08-19T00:19:14;22.77;;;12.48;;
1402;SDS011;696;48.546;9.896;2022-08-19T00:21:40;22.42;;;10.30;;
1402;SDS011;696;48.546;9.896;2022-08-19T00:24:07;20.58;;;10.65;;
1402;SDS011;696;48.546;9.896;2022-08-19T00:26:34;22.30;;;11.32;;
1402;SDS011;696;48.546;9.896;2022-08-19T00:29:00;21.00;;;10.77;;
1402;SDS011;696;48.546;9.896;2022-08-19T00:31:26;17.90;;;9.95;;
1402;SDS011;696;48.546;9.896;2022-08-19T00:33:52;16.88;;;9.27;;
1402;SDS011;696;48.546;9.896;2022-08-19T00:36:18;25.48;;;11.70;;
1402;SDS011;696;48.546;9.896;2022-08-19T00:38:44;21.25;;;11.30;;
1402;SDS011;696;48.546;9.896;2022-08-19T00:41:14;19.85;;;10.20;;
1402;SDS011;696;48.546;9.896;2022-08-19T00:43:42;18.13;;;10.63;;
1402;SDS011;696;48.546;9.896;2022-08-19T00:46:08;26.67;;;12.40;;
1402;SDS011;696;48.546;9.896;2022-08-19T00:48:34;19.23;;;10.75;;
1402;SDS011;696;48.546;9.896;2022-08-19T00:51:01;22.50;;;11.40;;
1402;SDS011;696;48.546;9.896;2022-08-19T00:53:27;24.17;;;11.82;;
1402;SDS011;696;48.546;9.896;2022-08-19T00:55:55;19.02;;;10.30;;
1402;SDS011;696;48.546;9.896;2022-08-19T00:58:22;21.23;;;10.10;;
1402;SDS011;696;48.546;9.896;2022-08-19T01:00:52;25.15;;;13.15;;
1402;SDS011;696;48.546;9.896;2022-08-19T01:03:19;24.10;;;12.45;;
1402;SDS011;696;48.546;9.896;2022-08-19T01:05:46;22.65;;;11.07;;
1402;SDS011;696;48.546;9.896;2022-08-19T01:08:13;23.83;;;11.88;;
1402;SDS011;696;48.546;9.896;2022-08-19T01:10:40;23.58;;;12.50;;
1402;SDS011;696;48.546;9.896;2022-08-19T01:13:07;22.25;;;11.63;;
1402;SDS011;696;48.546;9.896;2022-08-19T01:15:39;26.92;;;13.27;;
1402;SDS011;696;48.546;9.896;2022-08-19T01:18:08;29.35;;;14.60;;
1402;SDS011;696;48.546;9.896;2022-08-19T01:20:35;31.42;;;13.85;;
1402;SDS011;696;48.546;9.896;2022-08-19T01:23:00;22.70;;;12.80;;
1402;SDS011;696;48.546;9.896;2022-08-19T01:25:28;25.25;;;12.10;;
1402;SDS011;696;48.546;9.896;2022-08-19T01:27:56;21.23;;;11.82;;
1402;SDS011;696;48.546;9.896;2022-08-19T01:30:27;22.65;;;11.07;;
1402;SDS011;696;48.546;9.896;2022-08-19T01:32:57;23.88;;;12.13;;
1402;SDS011;696;48.546;9.896;2022-08-19T01:35:25;25.48;;;13.50;;
1402;SDS011;696;48.546;9.896;2022-08-19T01:40:21;23.02;;;12.95;;
1402;SDS011;696;48.546;9.896;2022-08-19T01:42:48;22.55;;;13.05;;
1402;SDS011;696;48.546;9.896;2022-08-19T01:45:14;30.70;;;12.57;;
1402;SDS011;696;48.546;9.896;2022-08-19T01:47:40;24.85;;;13.30;;
1402;SDS011;696;48.546;9.896;2022-08-19T01:50:07;23.45;;;11.95;;
1402;SDS011;696;48.546;9.896;2022-08-19T01:52:37;22.75;;;11.48;;
1402;SDS011;696;48.546;9.896;2022-08-19T01:57:33;22.10;;;12.75;;
1402;SDS011;696;48.546;9.896;2022-08-19T01:59:59;25.85;;;12.50;;
1402;SDS011;696;48.546;9.896;2022-08-19T02:02:25;25.35;;;11.75;;
1402;SDS011;696;48.546;9.896;2022-08-19T02:04:50;24.48;;;12.70;;
1402;SDS011;696;48.546;9.896;2022-08-19T02:07:18;20.50;;;11.48;;
1402;SDS011;696;48.546;9.896;2022-08-19T02:09:47;24.50;;;12.88;;
1402;SDS011;696;48.546;9.896;2022-08-19T02:12:13;22.40;;;12.43;;
1402;SDS011;696;48.546;9.896;2022-08-19T02:14:39;21.02;;;11.93;;
1402;SDS011;696;48.546;9.896;2022-08-19T02:17:04;22.80;;;12.43;;
1402;SDS011;696;48.546;9.896;2022-08-19T02:19:30;22.23;;;13.20;;
1402;SDS011;696;48.546;9.896;2022-08-19T02:21:57;31.30;;;12.68;;
1402;SDS011;696;48.546;9.896;2022-08-19T02:24:23;21.58;;;12.38;;
1402;SDS011;696;48.546;9.896;2022-08-19T02:26:48;23.15;;;12.68;;
1402;SDS011;696;48.546;9.896;2022-08-19T02:29:14;21.00;;;12.23;;
1402;SDS011;696;48.546;9.896;2022-08-19T02:31:39;20.75;;;12.05;;
1402;SDS011;696;48.546;9.896;2022-08-19T02:34:05;21.67;;;12.02;;
1402;SDS011;696;48.546;9.896;2022-08-19T02:36:30;23.50;;;12.15;;
1402;SDS011;696;48.546;9.896;2022-08-19T02:38:55;24.92;;;11.75;;
1402;SDS011;696;48.546;9.896;2022-08-19T02:41:22;23.42;;;11.93;;
1402;SDS011;696;48.546;9.896;2022-08-19T02:43:49;25.65;;;12.18;;
1402;SDS011;696;48.546;9.896;2022-08-19T02:46:24;22.15;;;13.52;;
1402;SDS011;696;48.546;9.896;2022-08-19T02:48:52;19.88;;;10.88;;
1402;SDS011;696;48.546;9.896;2022-08-19T02:51:23;28.38;;;12.48;;
1402;SDS011;696;48.546;9.896;2022-08-19T02:53:54;24.17;;;12.43;;
1402;SDS011;696;48.546;9.896;2022-08-19T02:56:20;18.30;;;10.13;;
1402;SDS011;696;48.546;9.896;2022-08-19T02:58:46;23.35;;;11.18;;
1402;SDS011;696;48.546;9.896;2022-08-19T03:01:19;21.98;;;12.57;;
1402;SDS011;696;48.546;9.896;2022-08-19T03:03:47;24.63;;;12.23;;
1402;SDS011;696;48.546;9.896;2022-08-19T03:06:13;24.30;;;13.00;;
1402;SDS011;696;48.546;9.896;2022-08-19T03:08:40;31.30;;;15.77;;
1402;SDS011;696;48.546;9.896;2022-08-19T03:11:11;34.20;;;17.23;;
1402;SDS011;696;48.546;9.896;2022-08-19T03:13:38;34.53;;;18.77;;
1402;SDS011;696;48.546;9.896;2022-08-19T03:16:04;39.70;;;14.55;;
1402;SDS011;696;48.546;9.896;2022-08-19T03:18:30;26.83;;;13.48;;
1402;SDS011;696;48.546;9.896;2022-08-19T03:20:55;23.13;;;12.73;;
1402;SDS011;696;48.546;9.896;2022-08-19T03:23:21;32.40;;;12.52;;
1402;SDS011;696;48.546;9.896;2022-08-19T03:25:47;24.52;;;12.90;;
1402;SDS011;696;48.546;9.896;2022-08-19T03:28:14;29.70;;;13.55;;
1402;SDS011;696;48.546;9.896;2022-08-19T03:30:41;27.95;;;12.57;;
1402;SDS011;696;48.546;9.896;2022-08-19T03:33:07;30.13;;;13.57;;
1402;SDS011;696;48.546;9.896;2022-08-19T03:35:33;26.85;;;13.40;;
1402;SDS011;696;48.546;9.896;2022-08-19T03:38:01;24.00;;;12.43;;
1402;SDS011;696;48.546;9.896;2022-08-19T03:40:28;25.60;;;13.20;;
1402;SDS011;696;48.546;9.896;2022-08-19T03:42:55;36.50;;;14.65;;
1402;SDS011;696;48.546;9.896;2022-08-19T03:45:21;25.92;;;13.13;;
1402;SDS011;696;48.546;9.896;2022-08-19T03:47:46;32.42;;;13.52;;
1402;SDS011;696;48.546;9.896;2022-08-19T03:50:11;29.15;;;13.32;;
1402;SDS011;696;48.546;9.896;2022-08-19T03:52:37;26.77;;;13.65;;
1402;SDS011;696;48.546;9.896;2022-08-19T03:55:04;25.58;;;12.18;;
1402;SDS011;696;48.546;9.896;2022-08-19T03:57:30;27.65;;;13.57;;
1402;SDS011;696;48.546;9.896;2022-08-19T03:59:55;25.27;;;13.73;;
1402;SDS011;696;48.546;9.896;2022-08-19T04:02:21;24.70;;;12.23;;
1402;SDS011;696;48.546;9.896;2022-08-19T04:04:46;24.48;;;13.27;;
1402;SDS011;696;48.546;9.896;2022-08-19T04:07:13;28.60;;;12.55;;
1402;SDS011;696;48.546;9.896;2022-08-19T04:09:46;26.88;;;13.02;;
1402;SDS011;696;48.546;9.896;2022-08-19T04:12:12;28.30;;;13.70;;
1402;SDS011;696;48.546;9.896;2022-08-19T04:14:37;21.45;;;12.35;;
1402;SDS011;696;48.546;9.896;2022-08-19T04:17:03;25.38;;;12.45;;
1402;SDS011;696;48.546;9.896;2022-08-19T04:19:32;24.67;;;11.77;;
1402;SDS011;696;48.546;9.896;2022-08-19T04:21:59;25.60;;;13.45;;
1402;SDS011;696;48.546;9.896;2022-08-19T04:24:24;25.30;;;12.57;;
1402;SDS011;696;48.546;9.896;2022-08-19T04:26:50;23.88;;;12.55;;
1402;SDS011;696;48.546;9.896;2022-08-19T04:29:19;26.20;;;11.63;;
1402;SDS011;696;48.546;9.896;2022-08-19T04:31:46;25.52;;;13.80;;
1402;SDS011;696;48.546;9.896;2022-08-19T04:34:12;30.52;;;12.38;;
1402;SDS011;696;48.546;9.896;2022-08-19T04:36:39;25.63;;;13.23;;
1402;SDS011;696;48.546;9.896;2022-08-19T04:39:08;24.90;;;12.68;;
1402;SDS011;696;48.546;9.896;2022-08-19T04:41:34;24.83;;;11.63;;
1402;SDS011;696;48.546;9.896;2022-08-19T04:44:19;25.38;;;12.57;;
1402;SDS011;696;48.546;9.896;2022-08-19T04:46:46;26.10;;;12.43;;
1402;SDS011;696;48.546;9.896;2022-08-19T04:49:13;28.17;;;13.63;;
1402;SDS011;696;48.546;9.896;2022-08-19T04:51:40;22.13;;;10.60;;
1402;SDS011;696;48.546;9.896;2022-08-19T04:54:07;27.95;;;11.93;;
1402;SDS011;696;48.546;9.896;2022-08-19T04:56:33;22.65;;;11.25;;
1402;SDS011;696;48.546;9.896;2022-08-19T04:58:58;23.45;;;11.30;;
1402;SDS011;696;48.546;9.896;2022-08-19T05:01:28;21.88;;;11.15;;
1402;SDS011;696;48.546;9.896;2022-08-19T05:03:54;22.27;;;11.82;;
1402;SDS011;696;48.546;9.896;2022-08-19T05:06:21;21.55;;;10.98;;
1402;SDS011;696;48.546;9.896;2022-08-19T05:08:47;20.35;;;11.27;;
1402;SDS011;696;48.546;9.896;2022-08-19T05:11:17;22.02;;;10.95;;
1402;SDS011;696;48.546;9.896;2022-08-19T05:13:49;26.05;;;12.63;;
1402;SDS011;696;48.546;9.896;2022-08-19T05:16:16;21.90;;;11.45;;
1402;SDS011;696;48.546;9.896;2022-08-19T05:18:42;21.35;;;11.70;;
1402;SDS011;696;48.546;9.896;2022-08-19T05:21:28;27.27;;;12.18;;
1402;SDS011;696;48.546;9.896;2022-08-19T05:24:12;26.77;;;11.18;;
1402;SDS011;696;48.546;9.896;2022-08-19T05:26:39;19.85;;;11.38;;
1402;SDS011;696;48.546;9.896;2022-08-19T05:29:07;24.10;;;11.70;;
1402;SDS011;696;48.546;9.896;2022-08-19T05:31:33;26.92;;;10.20;;
1402;SDS011;696;48.546;9.896;2022-08-19T05:34:00;28.90;;;12.02;;
1402;SDS011;696;48.546;9.896;2022-08-19T05:36:26;28.10;;;12.82;;
1402;SDS011;696;48.546;9.896;2022-08-19T05:38:54;25.55;;;11.32;;
1402;SDS011;696;48.546;9.896;2022-08-19T05:41:19;24.20;;;12.00;;
1402;SDS011;696;48.546;9.896;2022-08-19T05:43:45;25.60;;;11.38;;
1402;SDS011;696;48.546;9.896;2022-08-19T05:46:17;23.58;;;10.98;;
1402;SDS011;696;48.546;9.896;2022-08-19T05:48:43;30.20;;;11.10;;
1402;SDS011;696;48.546;9.896;2022-08-19T05:51:09;23.00;;;10.55;;
1402;SDS011;696;48.546;9.896;2022-08-19T05:53:36;26.15;;;12.93;;
1402;SDS011;696;48.546;9.896;2022-08-19T05:56:05;26.60;;;13.80;;
1402;SDS011;696;48.546;9.896;2022-08-19T05:58:35;30.85;;;13.82;;
1402;SDS011;696;48.546;9.896;2022-08-19T06:01:01;28.95;;;13.70;;
1402;SDS011;696;48.546;9.896;2022-08-19T06:03:30;30.58;;;13.48;;
1402;SDS011;696;48.546;9.896;2022-08-19T06:05:57;30.65;;;12.73;;
1402;SDS011;696;48.546;9.896;2022-08-19T06:08:24;35.60;;;14.23;;
1402;SDS011;696;48.546;9.896;2022-08-19T06:10:49;35.47;;;15.35;;
1402;SDS011;696;48.546;9.896;2022-08-19T06:13:15;27.10;;;13.32;;
1402;SDS011;696;48.546;9.896;2022-08-19T06:15:40;34.33;;;15.27;;
1402;SDS011;696;48.546;9.896;2022-08-19T06:18:08;34.40;;;15.20;;
1402;SDS011;696;48.546;9.896;2022-08-19T06:20:34;30.23;;;13.57;;
1402;SDS011;696;48.546;9.896;2022-08-19T06:22:59;37.28;;;13.80;;
1402;SDS011;696;48.546;9.896;2022-08-19T06:25:24;40.92;;;14.05;;
1402;SDS011;696;48.546;9.896;2022-08-19T06:27:50;32.92;;;15.30;;
1402;SDS011;696;48.546;9.896;2022-08-19T06:30:15;28.42;;;14.38;;
1402;SDS011;696;48.546;9.896;2022-08-19T06:32:41;37.47;;;15.20;;
1402;SDS011;696;48.546;9.896;2022-08-19T06:35:06;31.65;;;15.15;;
1402;SDS011;696;48.546;9.896;2022-08-19T06:37:32;35.13;;;14.68;;
1402;SDS011;696;48.546;9.896;2022-08-19T06:39:58;41.92;;;14.25;;
1402;SDS011;696;48.546;9.896;2022-08-19T06:42:23;32.90;;;15.65;;
1402;SDS011;696;48.546;9.896;2022-08-19T06:44:49;36.20;;;15.32;;
1402;SDS011;696;48.546;9.896;2022-08-19T06:47:19;32.58;;;15.20;;
1402;SDS011;696;48.546;9.896;2022-08-19T06:49:45;36.47;;;15.18;;
1402;SDS011;696;48.546;9.896;2022-08-19T06:52:12;31.20;;;14.00;;
1402;SDS011;696;48.546;9.896;2022-08-19T06:54:38;39.10;;;17.08;;
1402;SDS011;696;48.546;9.896;2022-08-19T06:57:04;36.03;;;15.07;;
1402;SDS011;696;48.546;9.896;2022-08-19T06:59:31;36.58;;;15.98;;
1402;SDS011;696;48.546;9.896;2022-08-19T07:01:58;40.65;;;16.35;;
1402;SDS011;696;48.546;9.896;2022-08-19T07:04:26;43.95;;;16.23;;
1402;SDS011;696;48.546;9.896;2022-08-19T07:07:01;36.38;;;15.90;;
1402;SDS011;696;48.546;9.896;2022-08-19T07:09:31;33.17;;;15.13;;
1402;SDS011;696;48.546;9.896;2022-08-19T07:11:57;35.53;;;15.40;;
1402;SDS011;696;48.546;9.896;2022-08-19T07:14:24;34.45;;;15.88;;
1402;SDS011;696;48.546;9.896;2022-08-19T07:16:51;40.72;;;17.15;;
1402;SDS011;696;48.546;9.896;2022-08-19T07:19:19;35.67;;;13.80;;
1402;SDS011;696;48.546;9.896;2022-08-19T07:21:46;36.55;;;16.60;;
1402;SDS011;696;48.546;9.896;2022-08-19T07:24:13;38.65;;;15.52;;
1402;SDS011;696;48.546;9.896;2022-08-19T07:26:41;41.20;;;15.00;;
1402;SDS011;696;48.546;9.896;2022-08-19T07:29:07;43.05;;;16.13;;
1402;SDS011;696;48.546;9.896;2022-08-19T07:31:33;35.42;;;15.95;;
1402;SDS011;696;48.546;9.896;2022-08-19T07:34:06;40.30;;;15.70;;
1402;SDS011;696;48.546;9.896;2022-08-19T07:36:33;43.17;;;16.15;;
1402;SDS011;696;48.546;9.896;2022-08-19T07:39:02;36.42;;;16.08;;
1402;SDS011;696;48.546;9.896;2022-08-19T07:41:38;34.65;;;15.32;;
1402;SDS011;696;48.546;9.896;2022-08-19T07:44:05;36.63;;;16.63;;
1402;SDS011;696;48.546;9.896;2022-08-19T07:46:33;43.65;;;15.55;;
1402;SDS011;696;48.546;9.896;2022-08-19T07:49:00;32.60;;;16.08;;
1402;SDS011;696;48.546;9.896;2022-08-19T07:51:26;35.17;;;14.85;;
1402;SDS011;696;48.546;9.896;2022-08-19T07:53:52;44.75;;;17.80;;
1402;SDS011;696;48.546;9.896;2022-08-19T07:56:18;35.92;;;16.23;;
1402;SDS011;696;48.546;9.896;2022-08-19T07:58:45;39.03;;;17.20;;
1402;SDS011;696;48.546;9.896;2022-08-19T08:01:14;37.25;;;15.88;;
1402;SDS011;696;48.546;9.896;2022-08-19T08:03:41;37.30;;;16.75;;
1402;SDS011;696;48.546;9.896;2022-08-19T08:06:25;37.58;;;16.85;;
1402;SDS011;696;48.546;9.896;2022-08-19T08:09:09;34.08;;;16.48;;
1402;SDS011;696;48.546;9.896;2022-08-19T08:11:50;38.63;;;17.45;;
1402;SDS011;696;48.546;9.896;2022-08-19T08:14:22;36.72;;;15.93;;
1402;SDS011;696;48.546;9.896;2022-08-19T08:16:49;40.33;;;17.42;;
1402;SDS011;696;48.546;9.896;2022-08-19T08:19:16;38.08;;;16.65;;
1402;SDS011;696;48.546;9.896;2022-08-19T08:21:42;51.00;;;18.85;;
1402;SDS011;696;48.546;9.896;2022-08-19T08:24:08;39.92;;;17.90;;
1402;SDS011;696;48.546;9.896;2022-08-19T08:26:34;44.95;;;18.95;;
1402;SDS011;696;48.546;9.896;2022-08-19T08:28:59;44.65;;;18.02;;
1402;SDS011;696;48.546;9.896;2022-08-19T08:31:25;38.05;;;15.23;;
1402;SDS011;696;48.546;9.896;2022-08-19T08:33:50;38.92;;;16.10;;
1402;SDS011;696;48.546;9.896;2022-08-19T08:36:16;42.08;;;17.77;;
1402;SDS011;696;48.546;9.896;2022-08-19T08:38:42;38.67;;;15.50;;
1402;SDS011;696;48.546;9.896;2022-08-19T08:43:55;47.42;;;18.45;;
1402;SDS011;696;48.546;9.896;2022-08-19T08:54:30;35.65;;;16.88;;
1402;SDS011;696;48.546;9.896;2022-08-19T08:59:53;43.97;;;18.08;;
1402;SDS011;696;48.546;9.896;2022-08-19T09:02:19;40.10;;;16.23;;
1402;SDS011;696;48.546;9.896;2022-08-19T09:04:45;35.38;;;14.85;;
1402;SDS011;696;48.546;9.896;2022-08-19T09:07:25;38.60;;;17.05;;
1402;SDS011;696;48.546;9.896;2022-08-19T09:09:57;31.90;;;16.77;;
1402;SDS011;696;48.546;9.896;2022-08-19T09:12:46;36.10;;;16.50;;
1402;SDS011;696;48.546;9.896;2022-08-19T09:15:29;28.10;;;15.02;;
1402;SDS011;696;48.546;9.896;2022-08-19T09:18:01;37.72;;;18.35;;
1402;SDS011;696;48.546;9.896;2022-08-19T09:20:28;39.50;;;18.23;;
1402;SDS011;696;48.546;9.896;2022-08-19T09:22:56;36.88;;;16.73;;
1402;SDS011;696;48.546;9.896;2022-08-19T09:25:23;46.50;;;18.35;;
1402;SDS011;696;48.546;9.896;2022-08-19T09:27:49;39.22;;;16.85;;
1402;SDS011;696;48.546;9.896;2022-08-19T09:30:18;38.15;;;18.95;;
1402;SDS011;696;48.546;9.896;2022-08-19T09:32:46;44.45;;;17.10;;
1402;SDS011;696;48.546;9.896;2022-08-19T09:35:12;43.40;;;18.65;;
1402;SDS011;696;48.546;9.896;2022-08-19T09:37:38;38.80;;;19.10;;
1402;SDS011;696;48.546;9.896;2022-08-19T09:40:04;39.40;;;17.05;;
1402;SDS011;696;48.546;9.896;2022-08-19T09:42:30;37.95;;;17.77;;
1402;SDS011;696;48.546;9.896;2022-08-19T09:44:55;34.92;;;18.98;;
1402;SDS011;696;48.546;9.896;2022-08-19T09:47:21;38.58;;;18.65;;
1402;SDS011;696;48.546;9.896;2022-08-19T09:49:46;34.88;;;17.20;;
1402;SDS011;696;48.546;9.896;2022-08-19T09:52:13;40.08;;;16.63;;
1402;SDS011;696;48.546;9.896;2022-08-19T09:54:41;55.47;;;17.60;;
1402;SDS011;696;48.546;9.896;2022-08-19T09:57:07;47.60;;;18.30;;
1402;SDS011;696;48.546;9.896;2022-08-19T09:59:32;38.25;;;17.17;;
1402;SDS011;696;48.546;9.896;2022-08-19T10:01:58;35.10;;;17.90;;
1402;SDS011;696;48.546;9.896;2022-08-19T10:04:23;41.60;;;18.48;;
1402;SDS011;696;48.546;9.896;2022-08-19T10:07:09;38.33;;;18.60;;
1402;SDS011;696;48.546;9.896;2022-08-19T10:09:34;35.00;;;16.98;;
1402;SDS011;696;48.546;9.896;2022-08-19T10:12:00;36.53;;;16.52;;
1402;SDS011;696;48.546;9.896;2022-08-19T10:14:26;36.03;;;16.15;;
1402;SDS011;696;48.546;9.896;2022-08-19T10:16:52;41.00;;;18.63;;
1402;SDS011;696;48.546;9.896;2022-08-19T10:19:17;31.42;;;17.08;;
1402;SDS011;696;48.546;9.896;2022-08-19T10:21:45;38.58;;;18.48;;
1402;SDS011;696;48.546;9.896;2022-08-19T10:24:10;33.88;;;17.92;;
1402;SDS011;696;48.546;9.896;2022-08-19T10:26:37;41.15;;;18.60;;
1402;SDS011;696;48.546;9.896;2022-08-19T10:29:06;37.80;;;17.65;;
1402;SDS011;696;48.546;9.896;2022-08-19T10:31:32;34.95;;;17.55;;
1402;SDS011;696;48.546;9.896;2022-08-19T10:33:59;39.85;;;18.27;;
1402;SDS011;696;48.546;9.896;2022-08-19T10:36:32;38.92;;;16.08;;
1402;SDS011;696;48.546;9.896;2022-08-19T10:39:01;39.35;;;16.35;;
1402;SDS011;696;48.546;9.896;2022-08-19T10:41:29;37.85;;;17.50;;
1402;SDS011;696;48.546;9.896;2022-08-19T10:43:57;43.85;;;19.35;;
1402;SDS011;696;48.546;9.896;2022-08-19T10:46:26;34.83;;;17.77;;
1402;SDS011;696;48.546;9.896;2022-08-19T10:48:52;34.17;;;15.95;;
1402;SDS011;696;48.546;9.896;2022-08-19T10:51:19;46.25;;;18.50;;
1402;SDS011;696;48.546;9.896;2022-08-19T10:54:03;43.97;;;20.10;;
1402;SDS011;696;48.546;9.896;2022-08-19T10:56:29;37.53;;;16.92;;
1402;SDS011;696;48.546;9.896;2022-08-19T10:59:14;48.13;;;17.63;;
1402;SDS011;696;48.546;9.896;2022-08-19T11:01:41;41.97;;;17.20;;
1402;SDS011;696;48.546;9.896;2022-08-19T11:04:07;40.45;;;18.08;;
1402;SDS011;696;48.546;9.896;2022-08-19T11:06:36;34.38;;;18.50;;
1402;SDS011;696;48.546;9.896;2022-08-19T11:09:03;37.25;;;17.67;;
1402;SDS011;696;48.546;9.896;2022-08-19T11:11:29;44.78;;;18.27;;
1402;SDS011;696;48.546;9.896;2022-08-19T11:13:55;45.03;;;20.52;;
1402;SDS011;696;48.546;9.896;2022-08-19T11:16:24;37.85;;;19.17;;
1402;SDS011;696;48.546;9.896;2022-08-19T11:18:53;40.10;;;17.40;;
1402;SDS011;696;48.546;9.896;2022-08-19T11:21:27;44.30;;;19.38;;
1402;SDS011;696;48.546;9.896;2022-08-19T11:24:00;41.67;;;17.60;;
1402;SDS011;696;48.546;9.896;2022-08-19T11:26:28;38.60;;;16.80;;
1402;SDS011;696;48.546;9.896;2022-08-19T11:28:55;43.08;;;16.45;;
1402;SDS011;696;48.546;9.896;2022-08-19T11:31:22;41.30;;;17.40;;
1402;SDS011;696;48.546;9.896;2022-08-19T11:33:49;40.60;;;16.05;;
1402;SDS011;696;48.546;9.896;2022-08-19T11:36:19;37.83;;;14.13;;
1402;SDS011;696;48.546;9.896;2022-08-19T11:38:46;30.15;;;14.95;;
1402;SDS011;696;48.546;9.896;2022-08-19T11:41:13;30.45;;;12.90;;
1402;SDS011;696;48.546;9.896;2022-08-19T11:43:39;30.83;;;13.98;;
1402;SDS011;696;48.546;9.896;2022-08-19T11:46:05;28.80;;;14.15;;
1402;SDS011;696;48.546;9.896;2022-08-19T11:48:32;28.00;;;13.57;;
1402;SDS011;696;48.546;9.896;2022-08-19T11:50:58;29.10;;;12.77;;
1402;SDS011;696;48.546;9.896;2022-08-19T11:53:25;32.85;;;13.88;;
1402;SDS011;696;48.546;9.896;2022-08-19T11:55:53;32.53;;;13.50;;
1402;SDS011;696;48.546;9.896;2022-08-19T11:58:20;33.35;;;14.70;;
1402;SDS011;696;48.546;9.896;2022-08-19T12:00:46;30.20;;;12.95;;
1402;SDS011;696;48.546;9.896;2022-08-19T12:03:14;24.42;;;13.23;;
1402;SDS011;696;48.546;9.896;2022-08-19T12:05:40;33.65;;;14.20;;
1402;SDS011;696;48.546;9.896;2022-08-19T12:08:06;39.30;;;14.40;;
1402;SDS011;696;48.546;9.896;2022-08-19T12:10:32;29.65;;;12.82;;
1402;SDS011;696;48.546;9.896;2022-08-19T12:12:58;28.80;;;13.40;;
1402;SDS011;696;48.546;9.896;2022-08-19T12:15:24;36.33;;;12.52;;
1402;SDS011;696;48.546;9.896;2022-08-19T12:17:52;35.67;;;12.90;;
1402;SDS011;696;48.546;9.896;2022-08-19T12:20:21;27.10;;;12.82;;
1402;SDS011;696;48.546;9.896;2022-08-19T12:22:47;41.05;;;13.52;;
1402;SDS011;696;48.546;9.896;2022-08-19T12:25:13;29.88;;;12.45;;
1402;SDS011;696;48.546;9.896;2022-08-19T12:27:39;25.88;;;12.38;;
1402;SDS011;696;48.546;9.896;2022-08-19T12:30:05;29.45;;;13.20;;
1402;SDS011;696;48.546;9.896;2022-08-19T12:32:32;27.55;;;11.68;;
1402;SDS011;696;48.546;9.896;2022-08-19T12:34:57;27.58;;;11.05;;
1402;SDS011;696;48.546;9.896;2022-08-19T12:37:22;19.65;;;10.02;;
1402;SDS011;696;48.546;9.896;2022-08-19T12:39:48;23.55;;;11.00;;
1402;SDS011;696;48.546;9.896;2022-08-19T12:42:13;27.33;;;9.98;;
1402;SDS011;696;48.546;9.896;2022-08-19T12:44:39;18.75;;;8.85;;
1402;SDS011;696;48.546;9.896;2022-08-19T12:47:07;20.65;;;9.50;;
1402;SDS011;696;48.546;9.896;2022-08-19T12:49:33;15.00;;;7.68;;
1402;SDS011;696;48.546;9.896;2022-08-19T12:52:02;16.70;;;7.60;;
1402;SDS011;696;48.546;9.896;2022-08-19T12:54:29;16.40;;;8.30;;
1402;SDS011;696;48.546;9.896;2022-08-19T12:56:55;12.98;;;7.70;;
1402;SDS011;696;48.546;9.896;2022-08-19T12:59:21;13.63;;;6.28;;
1402;SDS011;696;48.546;9.896;2022-08-19T13:01:47;17.77;;;6.80;;
1402;SDS011;696;48.546;9.896;2022-08-19T13:04:12;16.80;;;6.70;;
1402;SDS011;696;48.546;9.896;2022-08-19T13:06:38;16.58;;;5.88;;
1402;SDS011;696;48.546;9.896;2022-08-19T13:09:03;14.80;;;5.97;;
1402;SDS011;696;48.546;9.896;2022-08-19T13:11:29;14.77;;;5.25;;
1402;SDS011;696;48.546;9.896;2022-08-19T13:13:58;18.70;;;5.72;;
1402;SDS011;696;48.546;9.896;2022-08-19T13:16:23;19.73;;;6.72;;
1402;SDS011;696;48.546;9.896;2022-08-19T13:18:49;12.00;;;6.72;;
1402;SDS011;696;48.546;9.896;2022-08-19T13:21:18;13.27;;;6.78;;
1402;SDS011;696;48.546;9.896;2022-08-19T13:23:45;18.00;;;7.30;;
1402;SDS011;696;48.546;9.896;2022-08-19T13:26:11;14.07;;;7.50;;
1402;SDS011;696;48.546;9.896;2022-08-19T13:28:37;18.05;;;6.70;;
1402;SDS011;696;48.546;9.896;2022-08-19T13:31:23;12.30;;;6.40;;
1402;SDS011;696;48.546;9.896;2022-08-19T13:34:07;21.17;;;7.75;;
1402;SDS011;696;48.546;9.896;2022-08-19T13:36:33;15.00;;;7.80;;
1402;SDS011;696;48.546;9.896;2022-08-19T13:39:00;18.52;;;7.05;;
1402;SDS011;696;48.546;9.896;2022-08-19T13:41:25;15.40;;;7.70;;
1402;SDS011;696;48.546;9.896;2022-08-19T13:43:51;16.40;;;7.13;;
1402;SDS011;696;48.546;9.896;2022-08-19T13:46:17;16.83;;;7.20;;
1402;SDS011;696;48.546;9.896;2022-08-19T13:48:42;15.38;;;7.93;;
1402;SDS011;696;48.546;9.896;2022-08-19T13:51:08;20.58;;;8.57;;
1402;SDS011;696;48.546;9.896;2022-08-19T13:53:36;17.27;;;7.50;;
1402;SDS011;696;48.546;9.896;2022-08-19T13:56:08;11.88;;;6.97;;
1402;SDS011;696;48.546;9.896;2022-08-19T13:58:35;14.25;;;7.13;;
1402;SDS011;696;48.546;9.896;2022-08-19T14:01:00;16.73;;;7.63;;
1402;SDS011;696;48.546;9.896;2022-08-19T14:03:26;16.05;;;7.53;;
1402;SDS011;696;48.546;9.896;2022-08-19T14:05:52;15.98;;;7.63;;
1402;SDS011;696;48.546;9.896;2022-08-19T14:08:17;19.35;;;6.75;;
1402;SDS011;696;48.546;9.896;2022-08-19T14:10:43;15.15;;;7.00;;
1402;SDS011;696;48.546;9.896;2022-08-19T14:13:10;12.95;;;6.72;;
1402;SDS011;696;48.546;9.896;2022-08-19T14:15:38;20.27;;;8.25;;
1402;SDS011;696;48.546;9.896;2022-08-19T14:18:04;11.75;;;6.75;;
1402;SDS011;696;48.546;9.896;2022-08-19T14:20:29;17.05;;;6.70;;
1402;SDS011;696;48.546;9.896;2022-08-19T14:22:55;17.05;;;7.68;;
1402;SDS011;696;48.546;9.896;2022-08-19T14:25:22;12.25;;;6.53;;
1402;SDS011;696;48.546;9.896;2022-08-19T14:27:49;17.77;;;8.00;;
1402;SDS011;696;48.546;9.896;2022-08-19T14:30:16;16.23;;;6.95;;
1402;SDS011;696;48.546;9.896;2022-08-19T14:32:44;12.38;;;6.45;;
1402;SDS011;696;48.546;9.896;2022-08-19T14:35:11;12.35;;;6.50;;
1402;SDS011;696;48.546;9.896;2022-08-19T14:37:37;15.25;;;7.22;;
1402;SDS011;696;48.546;9.896;2022-08-19T14:40:04;16.13;;;6.55;;
1402;SDS011;696;48.546;9.896;2022-08-19T14:42:30;18.33;;;7.03;;
1402;SDS011;696;48.546;9.896;2022-08-19T14:44:59;12.35;;;7.10;;
1402;SDS011;696;48.546;9.896;2022-08-19T14:47:24;14.98;;;6.93;;
1402;SDS011;696;48.546;9.896;2022-08-19T14:49:51;16.40;;;6.50;;
1402;SDS011;696;48.546;9.896;2022-08-19T14:52:17;13.40;;;6.20;;
1402;SDS011;696;48.546;9.896;2022-08-19T14:54:42;14.07;;;6.65;;
1402;SDS011;696;48.546;9.896;2022-08-19T14:57:11;14.75;;;7.15;;
1402;SDS011;696;48.546;9.896;2022-08-19T14:59:37;15.75;;;7.38;;
1402;SDS011;696;48.546;9.896;2022-08-19T15:02:03;14.68;;;7.07;;
1402;SDS011;696;48.546;9.896;2022-08-19T15:04:28;12.23;;;6.20;;
1402;SDS011;696;48.546;9.896;2022-08-19T15:06:54;15.93;;;6.32;;
1402;SDS011;696;48.546;9.896;2022-08-19T15:09:20;16.27;;;7.80;;
1402;SDS011;696;48.546;9.896;2022-08-19T15:11:45;14.15;;;7.30;;
1402;SDS011;696;48.546;9.896;2022-08-19T15:14:11;14.13;;;6.95;;
1402;SDS011;696;48.546;9.896;2022-08-19T15:16:36;10.55;;;5.80;;
1402;SDS011;696;48.546;9.896;2022-08-19T15:19:04;12.50;;;7.38;;
1402;SDS011;696;48.546;9.896;2022-08-19T15:21:29;13.55;;;6.22;;
1402;SDS011;696;48.546;9.896;2022-08-19T15:23:56;16.23;;;7.90;;
1402;SDS011;696;48.546;9.896;2022-08-19T15:26:22;20.65;;;8.00;;